createdAt,value
2023-05-23T00:01:16.177Z,7.18
2023-05-23T00:03:49.775Z,6.18
2023-05-23T00:06:24.666Z,7.47
2023-05-23T00:08:58.565Z,6.03
2023-05-23T00:11:30.415Z,8.52
2023-05-23T00:14:03.792Z,9.70
2023-05-23T00:16:35.250Z,5.82
2023-05-23T00:19:06.592Z,5.70
2023-05-23T00:21:37.069Z,6.72
2023-05-23T00:24:08.705Z,5.72
2023-05-23T00:26:40.004Z,6.10
2023-05-23T00:29:18.143Z,7.15
2023-05-23T00:31:50.028Z,7.30
2023-05-23T00:34:21.768Z,5.28
2023-05-23T00:36:52.854Z,7.88
2023-05-23T00:39:23.589Z,11.05
2023-05-23T00:41:54.087Z,5.88
2023-05-23T00:44:25.001Z,5.95
2023-05-23T00:46:58.981Z,6.20
2023-05-23T00:49:30.555Z,6.60
2023-05-23T00:52:02.713Z,6.10
2023-05-23T00:57:05.135Z,5.90
2023-05-23T00:59:38.504Z,7.57
2023-05-23T01:02:11.395Z,7.70
2023-05-23T01:04:43.610Z,9.77
2023-05-23T01:07:15.222Z,5.80
2023-05-23T01:09:47.007Z,6.18
2023-05-23T01:12:56.232Z,7.55
2023-05-23T01:15:54.323Z,7.22
2023-05-23T01:19:10.206Z,4.93
2023-05-23T01:21:42.971Z,8.02
2023-05-23T01:24:28.498Z,6.28
2023-05-23T01:27:26.784Z,8.82
2023-05-23T01:30:00.683Z,8.30
2023-05-23T01:32:32.679Z,8.20
2023-05-23T01:35:03.511Z,6.43
2023-05-23T01:37:33.976Z,6.60
2023-05-23T01:40:04.453Z,5.68
2023-05-23T01:42:35.120Z,7.85
2023-05-23T01:45:06.424Z,8.77
2023-05-23T01:47:37.969Z,7.40
2023-05-23T01:50:10.313Z,9.77
2023-05-23T01:52:41.312Z,11.55
2023-05-23T01:55:13.331Z,7.80
2023-05-23T01:57:43.970Z,8.65
2023-05-23T02:00:16.182Z,7.97
2023-05-23T02:02:49.849Z,5.63
2023-05-23T02:05:20.689Z,7.63
2023-05-23T02:07:51.044Z,10.93
2023-05-23T02:10:22.166Z,9.30
2023-05-23T02:12:52.957Z,8.40
2023-05-23T02:15:23.465Z,8.68
2023-05-23T02:17:54.843Z,5.95
2023-05-23T02:20:25.110Z,6.25
2023-05-23T02:22:55.539Z,6.80
2023-05-23T02:25:25.763Z,7.43
2023-05-23T02:27:56.118Z,7.28
2023-05-23T02:30:26.554Z,6.72
2023-05-23T02:32:58.871Z,6.20
2023-05-23T02:35:29.220Z,7.63
2023-05-23T02:37:59.569Z,6.28
2023-05-23T02:40:30.889Z,7.15
2023-05-23T02:43:01.204Z,6.55
2023-05-23T02:45:33.022Z,6.15
2023-05-23T02:48:03.537Z,9.45
2023-05-23T02:50:34.039Z,7.75
2023-05-23T02:53:04.787Z,7.93
2023-05-23T02:55:35.109Z,6.10
2023-05-23T02:58:07.014Z,7.38
2023-05-23T03:00:38.380Z,7.13
2023-05-23T03:03:08.845Z,9.55
2023-05-23T03:05:39.445Z,7.03
2023-05-23T03:08:10.219Z,8.32
2023-05-23T03:10:40.468Z,7.32
2023-05-23T03:13:10.819Z,7.75
2023-05-23T03:15:41.197Z,8.98
2023-05-23T03:18:12.481Z,7.63
2023-05-23T03:20:43.531Z,6.18
2023-05-23T03:23:13.768Z,5.75
2023-05-23T03:25:45.420Z,8.85
2023-05-23T03:28:15.734Z,9.95
2023-05-23T03:30:46.250Z,8.15
2023-05-23T03:33:17.239Z,7.03
2023-05-23T03:35:47.769Z,8.60
2023-05-23T03:38:18.198Z,7.70
2023-05-23T03:40:48.831Z,8.07
2023-05-23T03:43:19.089Z,6.93
2023-05-23T03:45:49.597Z,6.70
2023-05-23T03:48:20.953Z,7.03
2023-05-23T03:50:52.427Z,7.07
2023-05-23T03:53:22.870Z,8.82
2023-05-23T03:55:55.244Z,7.13
2023-05-23T03:58:25.530Z,8.70
2023-05-23T04:01:02.032Z,7.53
2023-05-23T04:03:36.086Z,9.32
2023-05-23T04:06:07.992Z,7.50
2023-05-23T04:08:43.278Z,7.20
2023-05-23T04:11:14.620Z,7.25
2023-05-23T04:13:45.085Z,11.15
2023-05-23T04:16:15.601Z,7.38
2023-05-23T04:18:48.467Z,9.30
2023-05-23T04:21:18.829Z,7.05
2023-05-23T04:23:58.291Z,7.38
2023-05-23T04:26:29.081Z,6.45
2023-05-23T04:29:00.500Z,6.80
2023-05-23T04:31:31.324Z,7.20
2023-05-23T04:34:02.115Z,6.25
2023-05-23T04:36:33.770Z,5.25
2023-05-23T04:39:03.981Z,6.18
2023-05-23T04:41:40.398Z,7.32
2023-05-23T04:44:33.004Z,6.60
2023-05-23T04:47:13.722Z,7.82
2023-05-23T04:50:06.882Z,6.75
2023-05-23T04:52:37.653Z,8.68
2023-05-23T04:55:08.169Z,9.75
2023-05-23T04:57:39.199Z,7.18
2023-05-23T05:00:11.683Z,8.40
2023-05-23T05:02:42.848Z,7.47
2023-05-23T05:05:12.984Z,7.13
2023-05-23T05:07:43.466Z,8.95
2023-05-23T05:10:18.049Z,8.02
2023-05-23T05:12:52.415Z,7.50
2023-05-23T05:15:22.624Z,6.05
2023-05-23T05:17:57.731Z,14.05
2023-05-23T05:20:27.983Z,9.02
2023-05-23T05:23:00.463Z,8.15
2023-05-23T05:25:33.454Z,7.00
2023-05-23T05:28:07.343Z,8.45
2023-05-23T05:30:49.650Z,8.73
2023-05-23T05:33:20.516Z,8.25
2023-05-23T05:35:52.690Z,8.25
2023-05-23T05:38:23.817Z,10.35
2023-05-23T05:40:54.094Z,10.45
2023-05-23T05:43:25.417Z,8.80
2023-05-23T05:45:55.641Z,10.23
2023-05-23T05:48:26.287Z,6.40
2023-05-23T05:50:58.447Z,7.13
2023-05-23T05:53:28.870Z,10.35
2023-05-23T05:55:59.040Z,14.02
2023-05-23T05:58:29.515Z,6.97
2023-05-23T06:01:06.911Z,9.02
2023-05-23T06:03:37.434Z,9.98
2023-05-23T06:06:08.058Z,8.38
2023-05-23T06:08:40.023Z,9.68
2023-05-23T06:11:13.814Z,10.68
2023-05-23T06:13:46.842Z,6.20
2023-05-23T06:16:17.439Z,7.72
2023-05-23T06:18:48.459Z,8.35
2023-05-23T06:21:18.730Z,7.10
2023-05-23T06:23:53.656Z,7.70
2023-05-23T06:26:23.791Z,8.57
2023-05-23T06:28:55.288Z,7.35
2023-05-23T06:31:25.498Z,6.75
2023-05-23T06:33:55.881Z,9.52
2023-05-23T06:36:26.008Z,7.13
2023-05-23T06:38:58.041Z,6.32
2023-05-23T06:41:29.951Z,7.50
2023-05-23T06:44:00.276Z,9.35
2023-05-23T06:46:33.294Z,14.57
2023-05-23T06:49:14.405Z,8.25
2023-05-23T06:51:47.948Z,6.93
2023-05-23T06:54:18.261Z,7.40
2023-05-23T06:56:49.428Z,9.95
2023-05-23T06:59:19.728Z,8.50
2023-05-23T07:01:50.164Z,8.57
2023-05-23T07:04:21.346Z,11.88
2023-05-23T07:06:53.804Z,6.75
2023-05-23T07:09:24.359Z,7.93
2023-05-23T07:12:01.520Z,7.82
2023-05-23T07:14:32.299Z,7.97
2023-05-23T07:17:03.714Z,9.55
2023-05-23T07:19:34.268Z,8.02
2023-05-23T07:22:04.824Z,7.75
2023-05-23T07:24:38.306Z,7.22
2023-05-23T07:27:09.110Z,8.35
2023-05-23T07:29:41.155Z,8.05
2023-05-23T07:32:13.822Z,10.07
2023-05-23T07:34:44.143Z,8.55
2023-05-23T07:37:14.557Z,7.20
2023-05-23T07:42:18.808Z,9.20
2023-05-23T07:44:49.104Z,7.88
2023-05-23T07:47:19.514Z,10.13
2023-05-23T07:49:50.214Z,6.93
2023-05-23T07:52:20.520Z,8.27
2023-05-23T07:54:51.096Z,9.15
2023-05-23T07:57:21.246Z,10.45
2023-05-23T07:59:54.919Z,8.98
2023-05-23T08:04:58.250Z,12.43
2023-05-23T08:07:28.678Z,11.90
2023-05-23T08:10:03.307Z,9.68
2023-05-23T08:12:33.826Z,7.55
2023-05-23T08:15:11.742Z,8.38
2023-05-23T08:17:49.100Z,10.30
2023-05-23T08:20:20.809Z,10.00
2023-05-23T08:22:51.209Z,9.00
2023-05-23T08:25:21.451Z,11.23
2023-05-23T08:27:52.673Z,11.60
2023-05-23T08:30:41.443Z,8.15
2023-05-23T08:33:13.192Z,10.27
2023-05-23T08:35:46.401Z,12.40
2023-05-23T08:38:19.399Z,8.18
2023-05-23T08:41:03.633Z,7.45
2023-05-23T08:43:34.623Z,7.90
2023-05-23T08:46:06.446Z,8.70
2023-05-23T08:48:41.081Z,7.65
2023-05-23T08:51:17.189Z,9.70
2023-05-23T08:53:52.934Z,7.53
2023-05-23T08:56:29.668Z,7.05
2023-05-23T08:59:00.587Z,7.35
2023-05-23T09:01:32.074Z,9.27
2023-05-23T09:04:08.318Z,6.93
2023-05-23T09:07:01.868Z,8.23
2023-05-23T09:09:34.164Z,9.60
2023-05-23T09:12:07.444Z,7.50
2023-05-23T09:14:38.763Z,8.55
2023-05-23T09:17:11.469Z,12.23
2023-05-23T09:19:44.331Z,13.75
2023-05-23T09:22:32.593Z,5.93
2023-05-23T09:25:12.098Z,10.00
2023-05-23T09:27:47.788Z,13.85
2023-05-23T09:30:21.045Z,7.47
2023-05-23T09:33:04.786Z,7.68
2023-05-23T09:35:37.028Z,6.70
2023-05-23T09:38:11.301Z,8.45
2023-05-23T09:40:47.531Z,9.93
2023-05-23T09:43:20.105Z,9.68
2023-05-23T09:45:56.885Z,9.02
2023-05-23T09:48:33.468Z,12.02
2023-05-23T09:51:12.271Z,16.45
2023-05-23T09:53:43.332Z,11.23
2023-05-23T09:56:13.796Z,9.88
2023-05-23T09:58:48.256Z,9.20
2023-05-23T10:01:20.719Z,7.97
2023-05-23T10:04:00.176Z,12.10
2023-05-23T10:06:41.443Z,10.18
2023-05-23T10:09:18.760Z,11.85
2023-05-23T10:12:14.906Z,9.15
2023-05-23T10:14:49.936Z,12.00
2023-05-23T10:17:34.656Z,9.55
2023-05-23T10:20:11.247Z,10.05
2023-05-23T10:22:43.348Z,11.32
2023-05-23T10:25:14.727Z,11.25
2023-05-23T10:27:45.961Z,11.43
2023-05-23T10:30:16.338Z,8.60
2023-05-23T10:32:47.643Z,10.60
2023-05-23T10:35:32.556Z,12.18
2023-05-23T10:38:29.462Z,10.63
2023-05-23T10:41:07.693Z,9.98
2023-05-23T10:44:17.662Z,9.43
2023-05-23T10:47:03.620Z,12.35
2023-05-23T10:49:44.080Z,9.63
2023-05-23T10:52:15.958Z,10.00
2023-05-23T10:54:47.531Z,11.35
2023-05-23T10:57:28.991Z,11.02
2023-05-23T10:59:59.342Z,13.50
2023-05-23T11:02:30.999Z,13.93
2023-05-23T11:05:29.268Z,11.88
2023-05-23T11:08:15.234Z,13.77
2023-05-23T11:11:02.665Z,14.30
2023-05-23T11:13:57.063Z,15.77
2023-05-23T11:16:30.329Z,17.83
2023-05-23T11:19:20.516Z,14.10
2023-05-23T11:22:03.098Z,14.55
2023-05-23T11:24:55.437Z,10.43
2023-05-23T11:27:39.781Z,12.50
2023-05-23T11:30:15.771Z,18.00
2023-05-23T11:32:57.086Z,13.68
2023-05-23T11:35:28.082Z,12.07
2023-05-23T11:37:59.213Z,11.93
2023-05-23T11:40:37.117Z,14.02
2023-05-23T11:43:09.538Z,10.88
2023-05-23T11:45:40.847Z,13.90
2023-05-23T11:48:15.828Z,13.27
2023-05-23T11:50:48.278Z,12.23
2023-05-23T11:53:22.055Z,16.20
2023-05-23T11:55:57.804Z,12.18
2023-05-23T11:58:39.549Z,12.57
2023-05-23T12:01:11.986Z,12.13
2023-05-23T12:06:22.821Z,10.75
2023-05-23T12:08:55.904Z,14.25
2023-05-23T12:11:27.422Z,13.35
2023-05-23T12:13:57.827Z,11.13
2023-05-23T12:16:29.776Z,10.90
2023-05-23T12:19:01.507Z,11.13
2023-05-23T12:21:50.751Z,9.45
2023-05-23T12:24:24.932Z,10.48
2023-05-23T12:27:01.705Z,15.45
2023-05-23T12:29:35.125Z,15.80
2023-05-23T12:32:06.886Z,11.77
2023-05-23T12:34:43.794Z,14.98
2023-05-23T12:37:19.668Z,15.18
2023-05-23T12:39:50.772Z,12.63
2023-05-23T12:42:21.081Z,13.00
2023-05-23T12:44:55.402Z,13.35
2023-05-23T12:47:25.889Z,15.27
2023-05-23T12:49:56.069Z,15.90
2023-05-23T12:52:26.258Z,17.60
2023-05-23T12:54:56.911Z,16.00
2023-05-23T12:57:27.578Z,21.67
2023-05-23T12:59:58.010Z,15.70
2023-05-23T13:02:29.875Z,14.10
2023-05-23T13:05:00.246Z,14.80
2023-05-23T13:07:30.688Z,14.60
2023-05-23T13:10:01.133Z,12.52
2023-05-23T13:12:31.978Z,12.15
2023-05-23T13:15:02.437Z,16.80
2023-05-23T13:17:32.725Z,15.98
2023-05-23T13:20:03.357Z,10.98
2023-05-23T13:22:33.670Z,11.68
2023-05-23T13:25:04.473Z,14.02
2023-05-23T13:27:34.702Z,14.07
2023-05-23T13:30:06.197Z,13.70
2023-05-23T13:32:36.614Z,12.30
2023-05-23T13:35:07.539Z,10.48
2023-05-23T13:37:38.014Z,9.02
2023-05-23T13:40:09.363Z,12.73
2023-05-23T13:42:39.797Z,11.45
2023-05-23T13:45:10.626Z,9.38
2023-05-23T13:47:40.863Z,8.73
2023-05-23T13:50:11.940Z,7.30
2023-05-23T13:52:44.790Z,8.45
2023-05-23T13:55:16.303Z,9.70
2023-05-23T13:57:46.844Z,6.55
2023-05-23T14:00:17.705Z,9.85
2023-05-23T14:02:47.956Z,6.32
2023-05-23T14:05:20.555Z,7.65
2023-05-23T14:07:50.774Z,9.13
2023-05-23T14:10:21.135Z,8.80
2023-05-23T14:12:52.006Z,7.80
2023-05-23T14:15:22.503Z,31.50
2023-05-23T14:17:56.523Z,8.35
2023-05-23T14:20:26.961Z,15.02
2023-05-23T14:22:57.104Z,7.55
2023-05-23T14:25:27.545Z,13.68
2023-05-23T14:27:58.227Z,8.68
2023-05-23T14:30:28.378Z,13.57
2023-05-23T14:32:58.726Z,7.72
2023-05-23T14:35:30.841Z,9.88
2023-05-23T14:38:01.024Z,7.28
2023-05-23T14:40:31.294Z,6.35
2023-05-23T14:43:01.627Z,7.13
2023-05-23T14:45:32.692Z,7.50
2023-05-23T14:48:03.662Z,9.82
2023-05-23T14:50:34.137Z,11.65
2023-05-23T14:53:04.411Z,6.60
2023-05-23T14:55:34.658Z,7.38
2023-05-23T14:58:06.861Z,6.57
2023-05-23T15:00:36.945Z,9.95
2023-05-23T15:03:07.448Z,8.40
2023-05-23T15:05:37.717Z,5.97
2023-05-23T15:08:08.114Z,6.60
2023-05-23T15:10:38.702Z,6.22
2023-05-23T15:13:09.059Z,6.57
2023-05-23T15:15:40.110Z,7.63
2023-05-23T15:18:19.031Z,7.18
2023-05-23T15:20:55.198Z,9.35
2023-05-23T15:23:25.591Z,12.35
2023-05-23T15:25:55.955Z,9.50
2023-05-23T15:28:26.618Z,10.50
2023-05-23T15:30:58.337Z,8.80
2023-05-23T15:33:28.747Z,7.57
2023-05-23T15:36:00.555Z,6.90
2023-05-23T15:38:30.986Z,6.47
2023-05-23T15:41:01.539Z,9.07
2023-05-23T15:43:32.234Z,6.32
2023-05-23T15:46:02.809Z,8.50
2023-05-23T15:48:33.113Z,6.50
2023-05-23T15:51:03.576Z,7.90
2023-05-23T15:53:40.193Z,6.90
2023-05-23T15:58:48.550Z,6.80
2023-05-23T16:01:18.819Z,7.63
2023-05-23T16:03:49.873Z,5.63
2023-05-23T16:06:20.126Z,5.28
2023-05-23T16:08:50.380Z,7.35
2023-05-23T16:11:20.692Z,6.03
2023-05-23T16:13:50.893Z,9.70
2023-05-23T16:16:21.217Z,6.80
2023-05-23T16:18:51.814Z,6.32
2023-05-23T16:21:21.996Z,6.95
2023-05-23T16:23:52.132Z,7.32
2023-05-23T16:26:22.474Z,4.53
2023-05-23T16:28:52.732Z,7.80
2023-05-23T16:31:28.739Z,4.53
2023-05-23T16:34:00.338Z,4.95
2023-05-23T16:36:30.960Z,7.10
2023-05-23T16:39:01.114Z,4.43
2023-05-23T16:41:32.173Z,3.80
2023-05-23T16:44:02.565Z,6.10
2023-05-23T16:46:32.931Z,7.22
2023-05-23T16:49:03.532Z,4.65
2023-05-23T16:51:33.712Z,6.88
2023-05-23T16:54:03.867Z,6.13
2023-05-23T16:56:34.002Z,7.28
2023-05-23T16:59:04.260Z,3.95
2023-05-23T17:01:34.532Z,5.72
2023-05-23T17:04:06.221Z,5.10
2023-05-23T17:06:36.902Z,5.03
2023-05-23T17:09:07.034Z,4.80
2023-05-23T17:11:37.635Z,4.63
2023-05-23T17:14:08.013Z,4.35
2023-05-23T17:16:38.482Z,7.63
2023-05-23T17:19:08.965Z,5.40
2023-05-23T17:21:39.595Z,4.72
2023-05-23T17:24:09.915Z,3.85
2023-05-23T17:26:40.138Z,6.57
2023-05-23T17:29:10.646Z,7.03
2023-05-23T17:31:40.789Z,10.05
2023-05-23T17:34:13.246Z,5.10
2023-05-23T17:36:43.563Z,6.70
2023-05-23T17:39:13.882Z,7.90
2023-05-23T17:41:45.031Z,4.43
2023-05-23T17:44:15.636Z,7.45
2023-05-23T17:46:45.834Z,7.90
2023-05-23T17:49:16.814Z,6.30
2023-05-23T17:51:47.353Z,5.00
2023-05-23T17:54:18.188Z,4.10
2023-05-23T17:56:50.048Z,4.10
2023-05-23T17:59:20.501Z,7.03
2023-05-23T18:01:50.965Z,8.52
2023-05-23T18:04:21.302Z,4.72
2023-05-23T18:09:22.727Z,6.10
2023-05-23T18:11:56.550Z,4.45
2023-05-23T18:14:26.839Z,6.20
2023-05-23T18:16:57.172Z,4.65
2023-05-23T18:19:27.407Z,4.70
2023-05-23T18:21:58.720Z,4.47
2023-05-23T18:24:28.957Z,6.32
2023-05-23T18:26:59.337Z,5.78
2023-05-23T18:29:29.593Z,5.53
2023-05-23T18:31:59.985Z,4.55
2023-05-23T18:34:30.117Z,5.35
2023-05-23T18:37:00.269Z,5.63
2023-05-23T18:39:30.723Z,6.75
2023-05-23T18:42:00.921Z,5.35
2023-05-23T18:44:31.150Z,6.22
2023-05-23T18:47:01.577Z,5.07
2023-05-23T18:49:32.030Z,8.50
2023-05-23T18:52:02.321Z,6.15
2023-05-23T18:54:32.702Z,6.43
2023-05-23T18:57:04.474Z,4.85
2023-05-23T19:02:04.745Z,7.93
2023-05-23T19:04:35.003Z,6.30
2023-05-23T19:07:05.439Z,7.32
2023-05-23T19:09:36.116Z,4.82
2023-05-23T19:12:06.765Z,7.80
2023-05-23T19:14:37.358Z,15.93
2023-05-23T19:17:07.868Z,13.20
2023-05-23T19:19:38.708Z,4.70
2023-05-23T19:22:09.092Z,6.50
2023-05-23T19:24:40.161Z,10.65
2023-05-23T19:27:10.591Z,9.73
2023-05-23T19:29:40.875Z,10.45
2023-05-23T19:32:11.187Z,8.80
2023-05-23T19:34:41.584Z,6.30
2023-05-23T19:37:12.330Z,8.45
2023-05-23T19:39:47.812Z,5.85
2023-05-23T19:42:18.275Z,9.23
2023-05-23T19:44:48.459Z,7.05
2023-05-23T19:47:18.512Z,6.47
2023-05-23T19:49:48.617Z,5.55
2023-05-23T19:52:18.709Z,9.68
2023-05-23T19:54:48.838Z,6.78
2023-05-23T19:57:18.900Z,5.70
2023-05-23T19:59:49.043Z,9.68
2023-05-23T20:02:19.324Z,12.45
2023-05-23T20:04:49.514Z,8.18
2023-05-23T20:07:19.940Z,7.90
2023-05-23T20:09:50.987Z,5.63
2023-05-23T20:12:21.248Z,7.65
2023-05-23T20:14:51.477Z,10.55
2023-05-23T20:17:21.860Z,10.55
2023-05-23T20:19:52.195Z,15.90
2023-05-23T20:22:22.316Z,13.40
2023-05-23T20:24:52.691Z,13.00
2023-05-23T20:27:22.966Z,12.05
2023-05-23T20:29:53.195Z,19.08
2023-05-23T20:32:23.534Z,15.05
2023-05-23T20:34:54.135Z,16.67
2023-05-23T20:37:24.409Z,11.30
2023-05-23T20:39:55.357Z,14.07
2023-05-23T20:42:26.292Z,12.45
2023-05-23T20:44:58.143Z,14.95
2023-05-23T20:47:28.815Z,15.82
2023-05-23T20:49:59.292Z,21.85
2023-05-23T20:52:29.761Z,21.30
2023-05-23T20:54:59.950Z,16.42
2023-05-23T20:57:31.286Z,17.95
2023-05-23T21:00:01.523Z,16.35
2023-05-23T21:02:32.334Z,17.05
2023-05-23T21:05:02.487Z,19.02
2023-05-23T21:07:32.646Z,18.00
2023-05-23T21:10:03.257Z,16.90
2023-05-23T21:12:34.560Z,18.77
2023-05-23T21:15:05.013Z,21.50
2023-05-23T21:17:35.091Z,18.02
2023-05-23T21:20:06.768Z,18.95
2023-05-23T21:22:36.874Z,25.17
2023-05-23T21:25:07.661Z,16.38
2023-05-23T21:27:37.766Z,17.30
2023-05-23T21:30:08.541Z,14.43
2023-05-23T21:32:38.737Z,13.18
2023-05-23T21:35:09.821Z,14.35
2023-05-23T21:37:39.921Z,14.57
2023-05-23T21:40:11.898Z,16.83
2023-05-23T21:42:42.034Z,16.30
2023-05-23T21:45:12.712Z,14.05
2023-05-23T21:47:44.201Z,12.80
2023-05-23T21:50:15.657Z,17.85
2023-05-23T21:52:45.842Z,19.25
2023-05-23T21:55:16.208Z,16.38
2023-05-23T21:57:46.269Z,15.77
2023-05-23T22:00:39.568Z,17.85
2023-05-23T22:03:10.007Z,17.30
2023-05-23T22:05:40.224Z,13.02
2023-05-23T22:08:10.387Z,25.50
2023-05-23T22:10:41.751Z,16.90
2023-05-23T22:13:12.961Z,13.85
2023-05-23T22:15:43.281Z,14.18
2023-05-23T22:18:14.910Z,22.23
2023-05-23T22:20:46.012Z,13.95
2023-05-23T22:23:18.891Z,17.40
2023-05-23T22:25:49.403Z,13.50
2023-05-23T22:28:19.611Z,19.58
2023-05-23T22:30:49.832Z,15.90
2023-05-23T22:33:20.136Z,21.70
2023-05-23T22:35:50.188Z,56.13
2023-05-23T22:38:20.493Z,42.22
2023-05-23T22:40:50.849Z,39.53
2023-05-23T22:43:22.843Z,51.40
2023-05-23T22:45:53.775Z,34.35
2023-05-23T22:48:26.078Z,43.30
2023-05-23T22:50:58.265Z,38.30
2023-05-23T22:53:28.723Z,24.73
2023-05-23T22:55:59.789Z,30.85
2023-05-23T22:58:30.121Z,20.15
2023-05-23T23:01:03.501Z,19.45
2023-05-23T23:03:34.460Z,22.95
2023-05-23T23:06:10.499Z,24.08
2023-05-23T23:08:40.756Z,18.80
2023-05-23T23:11:11.193Z,23.05
2023-05-23T23:13:41.756Z,24.42
2023-05-23T23:16:13.711Z,15.13
2023-05-23T23:18:43.924Z,13.85
2023-05-23T23:21:14.801Z,16.80
2023-05-23T23:23:45.577Z,14.25
2023-05-23T23:26:17.340Z,12.90
2023-05-23T23:28:48.048Z,13.65
2023-05-23T23:31:21.541Z,13.02
2023-05-23T23:33:51.985Z,17.95
2023-05-23T23:36:24.611Z,13.77
2023-05-23T23:38:55.842Z,15.02
2023-05-23T23:41:29.113Z,15.88
2023-05-23T23:44:01.911Z,17.23
2023-05-23T23:46:32.884Z,11.18
2023-05-23T23:49:04.710Z,14.00
2023-05-23T23:51:41.143Z,17.00
2023-05-23T23:54:11.812Z,14.40
2023-05-23T23:56:43.299Z,14.43
2023-05-23T23:59:13.966Z,13.70
